sensor_id;sensor_type;location;lat;lon;timestamp;P1;durP1;ratioP1;P2;durP2;ratioP2
68353;SDS011;55274;43.060;25.618;2023-09-12T00:01:44;2.38;;;1.40;;
68353;SDS011;55274;43.060;25.618;2023-09-12T00:04:10;3.55;;;1.92;;
68353;SDS011;55274;43.060;25.618;2023-09-12T00:06:36;3.15;;;1.23;;
68353;SDS011;55274;43.060;25.618;2023-09-12T00:09:02;5.40;;;1.80;;
68353;SDS011;55274;43.060;25.618;2023-09-12T00:11:30;3.55;;;1.50;;
68353;SDS011;55274;43.060;25.618;2023-09-12T00:13:56;2.10;;;1.33;;
68353;SDS011;55274;43.060;25.618;2023-09-12T00:16:24;3.55;;;1.35;;
68353;SDS011;55274;43.060;25.618;2023-09-12T00:18:50;3.28;;;1.42;;
68353;SDS011;55274;43.060;25.618;2023-09-12T00:21:16;3.45;;;1.30;;
68353;SDS011;55274;43.060;25.618;2023-09-12T00:23:41;4.10;;;1.50;;
68353;SDS011;55274;43.060;25.618;2023-09-12T00:26:07;4.18;;;1.40;;
68353;SDS011;55274;43.060;25.618;2023-09-12T00:28:33;2.95;;;1.42;;
68353;SDS011;55274;43.060;25.618;2023-09-12T00:30:59;4.13;;;1.50;;
68353;SDS011;55274;43.060;25.618;2023-09-12T00:33:25;3.05;;;1.50;;
68353;SDS011;55274;43.060;25.618;2023-09-12T00:35:51;2.97;;;1.52;;
68353;SDS011;55274;43.060;25.618;2023-09-12T00:38:16;2.53;;;1.20;;
68353;SDS011;55274;43.060;25.618;2023-09-12T00:40:42;3.00;;;1.40;;
68353;SDS011;55274;43.060;25.618;2023-09-12T00:43:08;3.72;;;1.17;;
68353;SDS011;55274;43.060;25.618;2023-09-12T00:45:35;3.22;;;1.10;;
68353;SDS011;55274;43.060;25.618;2023-09-12T00:48:01;3.92;;;1.20;;
68353;SDS011;55274;43.060;25.618;2023-09-12T00:50:29;2.60;;;1.23;;
68353;SDS011;55274;43.060;25.618;2023-09-12T00:52:56;3.40;;;1.60;;
68353;SDS011;55274;43.060;25.618;2023-09-12T00:55:22;2.55;;;1.20;;
68353;SDS011;55274;43.060;25.618;2023-09-12T00:57:48;3.00;;;1.33;;
68353;SDS011;55274;43.060;25.618;2023-09-12T01:00:16;5.63;;;1.48;;
68353;SDS011;55274;43.060;25.618;2023-09-12T01:02:43;4.57;;;1.50;;
68353;SDS011;55274;43.060;25.618;2023-09-12T01:05:11;3.50;;;1.73;;
68353;SDS011;55274;43.060;25.618;2023-09-12T01:07:39;2.45;;;1.20;;
68353;SDS011;55274;43.060;25.618;2023-09-12T01:10:06;5.88;;;1.60;;
68353;SDS011;55274;43.060;25.618;2023-09-12T01:12:33;5.10;;;1.27;;
68353;SDS011;55274;43.060;25.618;2023-09-12T01:14:59;3.42;;;1.33;;
68353;SDS011;55274;43.060;25.618;2023-09-12T01:17:25;3.85;;;1.20;;
68353;SDS011;55274;43.060;25.618;2023-09-12T01:19:51;3.15;;;1.30;;
68353;SDS011;55274;43.060;25.618;2023-09-12T01:22:34;3.35;;;1.40;;
68353;SDS011;55274;43.060;25.618;2023-09-12T01:25:07;3.22;;;1.55;;
68353;SDS011;55274;43.060;25.618;2023-09-12T01:27:52;4.20;;;1.17;;
68353;SDS011;55274;43.060;25.618;2023-09-12T01:32:50;3.17;;;1.40;;
68353;SDS011;55274;43.060;25.618;2023-09-12T01:35:17;2.78;;;1.50;;
68353;SDS011;55274;43.060;25.618;2023-09-12T01:37:42;2.90;;;1.38;;
68353;SDS011;55274;43.060;25.618;2023-09-12T01:40:08;4.47;;;1.50;;
68353;SDS011;55274;43.060;25.618;2023-09-12T01:42:36;4.50;;;1.70;;
68353;SDS011;55274;43.060;25.618;2023-09-12T01:45:05;2.70;;;1.75;;
68353;SDS011;55274;43.060;25.618;2023-09-12T01:47:34;2.80;;;1.15;;
68353;SDS011;55274;43.060;25.618;2023-09-12T01:50:02;3.40;;;1.42;;
68353;SDS011;55274;43.060;25.618;2023-09-12T01:52:30;2.30;;;1.30;;
68353;SDS011;55274;43.060;25.618;2023-09-12T01:54:57;4.05;;;1.60;;
68353;SDS011;55274;43.060;25.618;2023-09-12T01:57:24;3.83;;;1.50;;
68353;SDS011;55274;43.060;25.618;2023-09-12T01:59:50;5.03;;;1.30;;
68353;SDS011;55274;43.060;25.618;2023-09-12T02:02:16;4.65;;;1.65;;
68353;SDS011;55274;43.060;25.618;2023-09-12T02:04:47;4.53;;;1.50;;
68353;SDS011;55274;43.060;25.618;2023-09-12T02:07:20;5.05;;;1.58;;
68353;SDS011;55274;43.060;25.618;2023-09-12T02:09:48;2.45;;;1.17;;
68353;SDS011;55274;43.060;25.618;2023-09-12T02:12:14;4.05;;;1.20;;
68353;SDS011;55274;43.060;25.618;2023-09-12T02:14:39;7.22;;;1.40;;
68353;SDS011;55274;43.060;25.618;2023-09-12T02:17:05;4.55;;;1.48;;
68353;SDS011;55274;43.060;25.618;2023-09-12T02:19:31;3.53;;;1.50;;
68353;SDS011;55274;43.060;25.618;2023-09-12T02:21:57;4.10;;;1.60;;
68353;SDS011;55274;43.060;25.618;2023-09-12T02:24:22;15.70;;;2.25;;
68353;SDS011;55274;43.060;25.618;2023-09-12T02:26:48;12.57;;;2.08;;
68353;SDS011;55274;43.060;25.618;2023-09-12T02:29:14;5.57;;;1.80;;
68353;SDS011;55274;43.060;25.618;2023-09-12T02:31:39;3.88;;;1.23;;
68353;SDS011;55274;43.060;25.618;2023-09-12T02:34:05;14.35;;;2.10;;
68353;SDS011;55274;43.060;25.618;2023-09-12T02:36:31;5.85;;;1.58;;
68353;SDS011;55274;43.060;25.618;2023-09-12T02:38:57;3.70;;;1.55;;
68353;SDS011;55274;43.060;25.618;2023-09-12T02:41:22;3.22;;;1.25;;
68353;SDS011;55274;43.060;25.618;2023-09-12T02:43:48;12.93;;;2.20;;
68353;SDS011;55274;43.060;25.618;2023-09-12T02:46:14;12.20;;;2.28;;
68353;SDS011;55274;43.060;25.618;2023-09-12T02:48:40;6.00;;;1.52;;
68353;SDS011;55274;43.060;25.618;2023-09-12T02:51:05;5.90;;;1.60;;
68353;SDS011;55274;43.060;25.618;2023-09-12T02:53:31;4.80;;;1.90;;
68353;SDS011;55274;43.060;25.618;2023-09-12T02:55:57;146.20;;;14.30;;
68353;SDS011;55274;43.060;25.618;2023-09-12T02:58:22;8.88;;;2.17;;
68353;SDS011;55274;43.060;25.618;2023-09-12T03:00:48;6.50;;;2.25;;
68353;SDS011;55274;43.060;25.618;2023-09-12T03:03:19;3.15;;;2.05;;
68353;SDS011;55274;43.060;25.618;2023-09-12T03:05:45;7.43;;;1.90;;
68353;SDS011;55274;43.060;25.618;2023-09-12T03:08:11;3.88;;;1.67;;
68353;SDS011;55274;43.060;25.618;2023-09-12T03:10:36;7.05;;;2.20;;
68353;SDS011;55274;43.060;25.618;2023-09-12T03:13:02;4.38;;;1.58;;
68353;SDS011;55274;43.060;25.618;2023-09-12T03:15:28;5.85;;;1.80;;
68353;SDS011;55274;43.060;25.618;2023-09-12T03:17:54;81.43;;;7.65;;
68353;SDS011;55274;43.060;25.618;2023-09-12T03:20:19;42.00;;;5.78;;
68353;SDS011;55274;43.060;25.618;2023-09-12T03:22:45;29.70;;;3.53;;
68353;SDS011;55274;43.060;25.618;2023-09-12T03:25:11;35.47;;;3.53;;
68353;SDS011;55274;43.060;25.618;2023-09-12T03:27:37;12.15;;;2.33;;
68353;SDS011;55274;43.060;25.618;2023-09-12T03:30:04;9.77;;;2.83;;
68353;SDS011;55274;43.060;25.618;2023-09-12T03:32:30;5.70;;;1.98;;
68353;SDS011;55274;43.060;25.618;2023-09-12T03:34:56;5.28;;;1.80;;
68353;SDS011;55274;43.060;25.618;2023-09-12T03:37:22;4.70;;;1.48;;
68353;SDS011;55274;43.060;25.618;2023-09-12T03:39:48;5.47;;;2.22;;
68353;SDS011;55274;43.060;25.618;2023-09-12T03:42:14;7.50;;;2.15;;
68353;SDS011;55274;43.060;25.618;2023-09-12T03:44:39;5.88;;;2.10;;
68353;SDS011;55274;43.060;25.618;2023-09-12T03:47:05;3.70;;;2.03;;
68353;SDS011;55274;43.060;25.618;2023-09-12T03:49:31;12.00;;;2.13;;
68353;SDS011;55274;43.060;25.618;2023-09-12T03:51:57;7.15;;;2.20;;
68353;SDS011;55274;43.060;25.618;2023-09-12T03:54:25;7.10;;;2.00;;
68353;SDS011;55274;43.060;25.618;2023-09-12T03:56:50;5.80;;;2.13;;
68353;SDS011;55274;43.060;25.618;2023-09-12T03:59:16;131.55;;;21.98;;
68353;SDS011;55274;43.060;25.618;2023-09-12T04:01:42;128.68;;;22.30;;
68353;SDS011;55274;43.060;25.618;2023-09-12T04:04:08;78.38;;;13.25;;
68353;SDS011;55274;43.060;25.618;2023-09-12T04:06:34;46.15;;;8.20;;
68353;SDS011;55274;43.060;25.618;2023-09-12T04:08:59;10.93;;;2.80;;
68353;SDS011;55274;43.060;25.618;2023-09-12T04:11:25;21.10;;;5.38;;
68353;SDS011;55274;43.060;25.618;2023-09-12T04:13:51;10.00;;;2.17;;
68353;SDS011;55274;43.060;25.618;2023-09-12T04:16:17;11.82;;;2.97;;
68353;SDS011;55274;43.060;25.618;2023-09-12T04:18:43;19.98;;;2.97;;
68353;SDS011;55274;43.060;25.618;2023-09-12T04:21:09;15.13;;;2.80;;
68353;SDS011;55274;43.060;25.618;2023-09-12T04:23:35;7.70;;;2.40;;
68353;SDS011;55274;43.060;25.618;2023-09-12T04:26:01;9.15;;;2.75;;
68353;SDS011;55274;43.060;25.618;2023-09-12T04:28:28;4.53;;;2.15;;
68353;SDS011;55274;43.060;25.618;2023-09-12T04:31:00;13.60;;;2.63;;
68353;SDS011;55274;43.060;25.618;2023-09-12T04:33:29;10.80;;;3.00;;
68353;SDS011;55274;43.060;25.618;2023-09-12T04:35:57;14.27;;;2.28;;
68353;SDS011;55274;43.060;25.618;2023-09-12T04:38:24;16.17;;;2.92;;
68353;SDS011;55274;43.060;25.618;2023-09-12T04:40:54;24.38;;;3.17;;
68353;SDS011;55274;43.060;25.618;2023-09-12T04:43:20;6.47;;;2.03;;
68353;SDS011;55274;43.060;25.618;2023-09-12T04:45:46;4.05;;;1.67;;
68353;SDS011;55274;43.060;25.618;2023-09-12T04:48:13;60.25;;;5.70;;
68353;SDS011;55274;43.060;25.618;2023-09-12T04:50:42;10.45;;;2.53;;
68353;SDS011;55274;43.060;25.618;2023-09-12T04:53:08;39.92;;;4.22;;
68353;SDS011;55274;43.060;25.618;2023-09-12T04:55:37;7.13;;;2.22;;
68353;SDS011;55274;43.060;25.618;2023-09-12T04:58:04;12.20;;;2.50;;
68353;SDS011;55274;43.060;25.618;2023-09-12T05:00:31;47.08;;;5.40;;
68353;SDS011;55274;43.060;25.618;2023-09-12T05:02:57;15.93;;;2.58;;
68353;SDS011;55274;43.060;25.618;2023-09-12T05:05:24;18.40;;;2.35;;
68353;SDS011;55274;43.060;25.618;2023-09-12T05:07:50;5.38;;;2.00;;
68353;SDS011;55274;43.060;25.618;2023-09-12T05:10:18;7.10;;;2.00;;
68353;SDS011;55274;43.060;25.618;2023-09-12T05:12:44;5.47;;;1.75;;
68353;SDS011;55274;43.060;25.618;2023-09-12T05:15:10;9.43;;;2.45;;
68353;SDS011;55274;43.060;25.618;2023-09-12T05:17:36;16.42;;;2.85;;
68353;SDS011;55274;43.060;25.618;2023-09-12T05:20:03;15.30;;;2.60;;
68353;SDS011;55274;43.060;25.618;2023-09-12T05:22:31;11.35;;;2.70;;
68353;SDS011;55274;43.060;25.618;2023-09-12T05:24:57;22.65;;;5.80;;
68353;SDS011;55274;43.060;25.618;2023-09-12T05:27:23;12.77;;;4.00;;
68353;SDS011;55274;43.060;25.618;2023-09-12T05:29:49;13.55;;;2.75;;
68353;SDS011;55274;43.060;25.618;2023-09-12T05:32:14;13.07;;;2.55;;
68353;SDS011;55274;43.060;25.618;2023-09-12T05:34:41;15.40;;;2.60;;
68353;SDS011;55274;43.060;25.618;2023-09-12T05:37:07;16.80;;;2.67;;
68353;SDS011;55274;43.060;25.618;2023-09-12T05:39:33;22.77;;;3.63;;
68353;SDS011;55274;43.060;25.618;2023-09-12T05:41:59;30.83;;;4.63;;
68353;SDS011;55274;43.060;25.618;2023-09-12T05:44:25;23.35;;;3.28;;
68353;SDS011;55274;43.060;25.618;2023-09-12T05:46:51;16.73;;;2.92;;
68353;SDS011;55274;43.060;25.618;2023-09-12T05:49:17;32.95;;;3.78;;
68353;SDS011;55274;43.060;25.618;2023-09-12T05:51:43;23.67;;;3.15;;
68353;SDS011;55274;43.060;25.618;2023-09-12T05:54:10;21.15;;;3.28;;
68353;SDS011;55274;43.060;25.618;2023-09-12T05:56:38;20.40;;;3.47;;
68353;SDS011;55274;43.060;25.618;2023-09-12T05:59:05;18.52;;;3.10;;
68353;SDS011;55274;43.060;25.618;2023-09-12T06:01:31;21.27;;;3.33;;
68353;SDS011;55274;43.060;25.618;2023-09-12T06:03:57;17.23;;;2.85;;
68353;SDS011;55274;43.060;25.618;2023-09-12T06:06:23;13.90;;;2.40;;
68353;SDS011;55274;43.060;25.618;2023-09-12T06:08:49;15.55;;;2.33;;
68353;SDS011;55274;43.060;25.618;2023-09-12T06:11:14;14.25;;;1.92;;
68353;SDS011;55274;43.060;25.618;2023-09-12T06:13:40;17.02;;;2.38;;
68353;SDS011;55274;43.060;25.618;2023-09-12T06:16:06;16.95;;;2.03;;
68353;SDS011;55274;43.060;25.618;2023-09-12T06:18:35;14.52;;;2.22;;
68353;SDS011;55274;43.060;25.618;2023-09-12T06:21:01;5.53;;;1.73;;
68353;SDS011;55274;43.060;25.618;2023-09-12T06:23:33;6.60;;;1.63;;
68353;SDS011;55274;43.060;25.618;2023-09-12T06:25:59;8.25;;;1.80;;
68353;SDS011;55274;43.060;25.618;2023-09-12T06:28:29;6.88;;;1.80;;
68353;SDS011;55274;43.060;25.618;2023-09-12T06:30:55;16.30;;;2.33;;
68353;SDS011;55274;43.060;25.618;2023-09-12T06:33:25;9.07;;;1.52;;
68353;SDS011;55274;43.060;25.618;2023-09-12T06:35:51;5.82;;;1.52;;
68353;SDS011;55274;43.060;25.618;2023-09-12T06:38:20;8.10;;;2.00;;
68353;SDS011;55274;43.060;25.618;2023-09-12T06:40:47;8.18;;;2.03;;
68353;SDS011;55274;43.060;25.618;2023-09-12T06:43:13;6.47;;;1.60;;
68353;SDS011;55274;43.060;25.618;2023-09-12T06:48:46;5.20;;;1.40;;
68353;SDS011;55274;43.060;25.618;2023-09-12T06:51:14;4.53;;;1.38;;
68353;SDS011;55274;43.060;25.618;2023-09-12T06:53:40;6.85;;;1.60;;
68353;SDS011;55274;43.060;25.618;2023-09-12T06:56:05;6.60;;;1.65;;
68353;SDS011;55274;43.060;25.618;2023-09-12T06:58:32;11.32;;;2.08;;
68353;SDS011;55274;43.060;25.618;2023-09-12T07:01:01;5.35;;;1.70;;
68353;SDS011;55274;43.060;25.618;2023-09-12T07:03:28;9.93;;;1.55;;
68353;SDS011;55274;43.060;25.618;2023-09-12T07:05:55;7.80;;;1.52;;
68353;SDS011;55274;43.060;25.618;2023-09-12T07:08:20;3.80;;;1.30;;
68353;SDS011;55274;43.060;25.618;2023-09-12T07:10:46;5.72;;;1.23;;
68353;SDS011;55274;43.060;25.618;2023-09-12T07:13:12;6.07;;;1.70;;
68353;SDS011;55274;43.060;25.618;2023-09-12T07:15:38;9.00;;;2.00;;
68353;SDS011;55274;43.060;25.618;2023-09-12T07:18:04;5.05;;;1.50;;
68353;SDS011;55274;43.060;25.618;2023-09-12T07:20:31;4.05;;;1.30;;
68353;SDS011;55274;43.060;25.618;2023-09-12T07:22:59;4.47;;;1.25;;
68353;SDS011;55274;43.060;25.618;2023-09-12T07:25:24;3.33;;;1.15;;
68353;SDS011;55274;43.060;25.618;2023-09-12T07:27:50;4.85;;;1.20;;
68353;SDS011;55274;43.060;25.618;2023-09-12T07:30:17;4.30;;;1.40;;
68353;SDS011;55274;43.060;25.618;2023-09-12T07:32:42;2.55;;;1.33;;
68353;SDS011;55274;43.060;25.618;2023-09-12T07:35:08;4.43;;;1.02;;
68353;SDS011;55274;43.060;25.618;2023-09-12T07:37:34;3.45;;;1.23;;
68353;SDS011;55274;43.060;25.618;2023-09-12T07:40:00;4.80;;;1.38;;
68353;SDS011;55274;43.060;25.618;2023-09-12T07:42:31;5.65;;;1.15;;
68353;SDS011;55274;43.060;25.618;2023-09-12T07:44:57;3.47;;;1.42;;
68353;SDS011;55274;43.060;25.618;2023-09-12T07:47:23;5.90;;;1.42;;
68353;SDS011;55274;43.060;25.618;2023-09-12T07:49:55;6.32;;;1.33;;
68353;SDS011;55274;43.060;25.618;2023-09-12T07:52:21;4.43;;;1.75;;
68353;SDS011;55274;43.060;25.618;2023-09-12T07:54:48;4.20;;;1.17;;
68353;SDS011;55274;43.060;25.618;2023-09-12T07:57:14;5.63;;;1.40;;
68353;SDS011;55274;43.060;25.618;2023-09-12T07:59:40;5.57;;;1.60;;
68353;SDS011;55274;43.060;25.618;2023-09-12T08:02:06;4.05;;;1.48;;
68353;SDS011;55274;43.060;25.618;2023-09-12T08:04:31;4.43;;;1.38;;
68353;SDS011;55274;43.060;25.618;2023-09-12T08:06:59;7.78;;;1.33;;
68353;SDS011;55274;43.060;25.618;2023-09-12T08:09:46;5.43;;;1.73;;
68353;SDS011;55274;43.060;25.618;2023-09-12T08:12:21;5.63;;;1.40;;
68353;SDS011;55274;43.060;25.618;2023-09-12T08:17:13;4.72;;;1.83;;
68353;SDS011;55274;43.060;25.618;2023-09-12T08:19:40;6.90;;;1.48;;
68353;SDS011;55274;43.060;25.618;2023-09-12T08:22:06;8.18;;;1.45;;
68353;SDS011;55274;43.060;25.618;2023-09-12T08:24:33;5.15;;;1.52;;
68353;SDS011;55274;43.060;25.618;2023-09-12T08:27:00;3.28;;;1.35;;
68353;SDS011;55274;43.060;25.618;2023-09-12T08:29:27;5.38;;;1.80;;
68353;SDS011;55274;43.060;25.618;2023-09-12T08:31:53;5.35;;;1.60;;
68353;SDS011;55274;43.060;25.618;2023-09-12T08:34:22;8.77;;;2.00;;
68353;SDS011;55274;43.060;25.618;2023-09-12T08:36:48;7.68;;;1.60;;
68353;SDS011;55274;43.060;25.618;2023-09-12T08:39:14;5.68;;;1.38;;
68353;SDS011;55274;43.060;25.618;2023-09-12T08:41:44;5.00;;;1.60;;
68353;SDS011;55274;43.060;25.618;2023-09-12T08:44:11;4.68;;;1.80;;
68353;SDS011;55274;43.060;25.618;2023-09-12T08:46:39;5.78;;;1.73;;
68353;SDS011;55274;43.060;25.618;2023-09-12T08:49:07;3.47;;;1.90;;
68353;SDS011;55274;43.060;25.618;2023-09-12T08:51:35;3.40;;;1.70;;
68353;SDS011;55274;43.060;25.618;2023-09-12T08:54:02;34.30;;;6.82;;
68353;SDS011;55274;43.060;25.618;2023-09-12T08:56:32;7.25;;;2.13;;
68353;SDS011;55274;43.060;25.618;2023-09-12T08:59:01;8.40;;;1.95;;
68353;SDS011;55274;43.060;25.618;2023-09-12T09:01:31;7.38;;;1.63;;
68353;SDS011;55274;43.060;25.618;2023-09-12T09:03:57;4.82;;;1.73;;
68353;SDS011;55274;43.060;25.618;2023-09-12T09:06:24;3.75;;;1.50;;
68353;SDS011;55274;43.060;25.618;2023-09-12T09:08:51;2.50;;;1.52;;
68353;SDS011;55274;43.060;25.618;2023-09-12T09:11:17;5.75;;;1.48;;
68353;SDS011;55274;43.060;25.618;2023-09-12T09:13:46;6.22;;;1.63;;
68353;SDS011;55274;43.060;25.618;2023-09-12T09:16:16;23.63;;;3.90;;
68353;SDS011;55274;43.060;25.618;2023-09-12T09:19:06;6.72;;;1.60;;
68353;SDS011;55274;43.060;25.618;2023-09-12T09:21:35;4.03;;;1.90;;
68353;SDS011;55274;43.060;25.618;2023-09-12T09:24:08;7.47;;;1.77;;
68353;SDS011;55274;43.060;25.618;2023-09-12T09:26:49;3.17;;;1.13;;
68353;SDS011;55274;43.060;25.618;2023-09-12T09:29:16;5.15;;;1.65;;
68353;SDS011;55274;43.060;25.618;2023-09-12T09:34:44;4.88;;;1.70;;
68353;SDS011;55274;43.060;25.618;2023-09-12T09:37:10;4.85;;;1.67;;
68353;SDS011;55274;43.060;25.618;2023-09-12T09:39:36;6.40;;;2.00;;
68353;SDS011;55274;43.060;25.618;2023-09-12T09:42:01;6.95;;;1.70;;
68353;SDS011;55274;43.060;25.618;2023-09-12T09:44:28;2.15;;;1.27;;
68353;SDS011;55274;43.060;25.618;2023-09-12T09:46:59;15.32;;;2.40;;
68353;SDS011;55274;43.060;25.618;2023-09-12T09:49:31;6.70;;;1.80;;
68353;SDS011;55274;43.060;25.618;2023-09-12T09:51:59;5.90;;;1.60;;
68353;SDS011;55274;43.060;25.618;2023-09-12T09:54:28;5.40;;;1.58;;
68353;SDS011;55274;43.060;25.618;2023-09-12T09:56:54;3.83;;;1.40;;
68353;SDS011;55274;43.060;25.618;2023-09-12T09:59:21;4.38;;;1.45;;
68353;SDS011;55274;43.060;25.618;2023-09-12T10:01:48;4.47;;;1.50;;
68353;SDS011;55274;43.060;25.618;2023-09-12T10:04:16;5.22;;;1.52;;
68353;SDS011;55274;43.060;25.618;2023-09-12T10:06:44;7.47;;;1.80;;
68353;SDS011;55274;43.060;25.618;2023-09-12T10:09:12;14.60;;;2.53;;
68353;SDS011;55274;43.060;25.618;2023-09-12T10:11:39;7.88;;;2.13;;
68353;SDS011;55274;43.060;25.618;2023-09-12T10:14:07;3.60;;;1.60;;
68353;SDS011;55274;43.060;25.618;2023-09-12T10:16:42;2.63;;;1.60;;
68353;SDS011;55274;43.060;25.618;2023-09-12T10:19:30;8.30;;;2.22;;
68353;SDS011;55274;43.060;25.618;2023-09-12T10:24:49;5.45;;;1.70;;
68353;SDS011;55274;43.060;25.618;2023-09-12T10:27:15;5.75;;;2.03;;
68353;SDS011;55274;43.060;25.618;2023-09-12T10:29:43;12.48;;;2.22;;
68353;SDS011;55274;43.060;25.618;2023-09-12T10:32:12;3.25;;;1.33;;
68353;SDS011;55274;43.060;25.618;2023-09-12T10:34:40;6.03;;;1.70;;
68353;SDS011;55274;43.060;25.618;2023-09-12T10:37:10;4.95;;;1.70;;
68353;SDS011;55274;43.060;25.618;2023-09-12T10:39:40;3.22;;;1.50;;
68353;SDS011;55274;43.060;25.618;2023-09-12T10:42:08;5.72;;;1.77;;
68353;SDS011;55274;43.060;25.618;2023-09-12T10:44:37;6.85;;;1.80;;
68353;SDS011;55274;43.060;25.618;2023-09-12T10:47:04;7.93;;;2.03;;
68353;SDS011;55274;43.060;25.618;2023-09-12T10:49:31;5.10;;;1.73;;
68353;SDS011;55274;43.060;25.618;2023-09-12T10:51:57;4.35;;;1.70;;
68353;SDS011;55274;43.060;25.618;2023-09-12T10:54:35;4.00;;;1.48;;
68353;SDS011;55274;43.060;25.618;2023-09-12T10:57:08;5.15;;;1.50;;
68353;SDS011;55274;43.060;25.618;2023-09-12T11:02:33;6.88;;;2.15;;
68353;SDS011;55274;43.060;25.618;2023-09-12T11:05:00;5.55;;;1.70;;
68353;SDS011;55274;43.060;25.618;2023-09-12T11:07:50;7.30;;;2.05;;
68353;SDS011;55274;43.060;25.618;2023-09-12T11:12:42;3.33;;;1.60;;
68353;SDS011;55274;43.060;25.618;2023-09-12T11:15:09;12.50;;;2.53;;
68353;SDS011;55274;43.060;25.618;2023-09-12T11:17:39;9.32;;;2.25;;
68353;SDS011;55274;43.060;25.618;2023-09-12T11:20:06;9.07;;;2.15;;
68353;SDS011;55274;43.060;25.618;2023-09-12T11:22:36;5.00;;;2.08;;
68353;SDS011;55274;43.060;25.618;2023-09-12T11:32:47;3.08;;;1.58;;
68353;SDS011;55274;43.060;25.618;2023-09-12T11:35:16;4.40;;;1.80;;
68353;SDS011;55274;43.060;25.618;2023-09-12T11:37:51;8.43;;;1.55;;
68353;SDS011;55274;43.060;25.618;2023-09-12T11:40:26;3.90;;;1.67;;
68353;SDS011;55274;43.060;25.618;2023-09-12T11:42:57;4.55;;;2.03;;
68353;SDS011;55274;43.060;25.618;2023-09-12T11:45:23;5.47;;;2.10;;
68353;SDS011;55274;43.060;25.618;2023-09-12T11:47:50;12.75;;;2.60;;
68353;SDS011;55274;43.060;25.618;2023-09-12T11:52:58;8.50;;;2.50;;
68353;SDS011;55274;43.060;25.618;2023-09-12T11:55:35;5.97;;;1.88;;
68353;SDS011;55274;43.060;25.618;2023-09-12T11:58:10;11.70;;;2.38;;
68353;SDS011;55274;43.060;25.618;2023-09-12T12:00:58;4.75;;;1.70;;
68353;SDS011;55274;43.060;25.618;2023-09-12T12:03:24;22.85;;;2.90;;
68353;SDS011;55274;43.060;25.618;2023-09-12T12:05:53;8.20;;;2.40;;
68353;SDS011;55274;43.060;25.618;2023-09-12T12:08:20;7.80;;;2.63;;
68353;SDS011;55274;43.060;25.618;2023-09-12T12:10:50;11.38;;;2.80;;
68353;SDS011;55274;43.060;25.618;2023-09-12T12:13:19;19.88;;;3.35;;
68353;SDS011;55274;43.060;25.618;2023-09-12T12:15:46;5.70;;;2.03;;
68353;SDS011;55274;43.060;25.618;2023-09-12T12:18:12;22.13;;;3.08;;
68353;SDS011;55274;43.060;25.618;2023-09-12T12:20:38;15.68;;;3.25;;
68353;SDS011;55274;43.060;25.618;2023-09-12T12:23:04;5.43;;;2.20;;
68353;SDS011;55274;43.060;25.618;2023-09-12T12:25:33;47.58;;;5.00;;
68353;SDS011;55274;43.060;25.618;2023-09-12T12:28:00;10.27;;;2.72;;
68353;SDS011;55274;43.060;25.618;2023-09-12T12:30:30;6.65;;;2.58;;
68353;SDS011;55274;43.060;25.618;2023-09-12T12:33:00;7.85;;;2.55;;
68353;SDS011;55274;43.060;25.618;2023-09-12T12:35:27;6.78;;;2.45;;
68353;SDS011;55274;43.060;25.618;2023-09-12T12:37:54;5.93;;;2.03;;
68353;SDS011;55274;43.060;25.618;2023-09-12T12:40:21;7.97;;;2.45;;
68353;SDS011;55274;43.060;25.618;2023-09-12T12:42:47;5.60;;;1.98;;
68353;SDS011;55274;43.060;25.618;2023-09-12T12:45:13;4.22;;;2.00;;
68353;SDS011;55274;43.060;25.618;2023-09-12T12:47:41;5.28;;;2.15;;
68353;SDS011;55274;43.060;25.618;2023-09-12T12:50:08;3.92;;;2.03;;
68353;SDS011;55274;43.060;25.618;2023-09-12T12:52:36;4.15;;;2.03;;
68353;SDS011;55274;43.060;25.618;2023-09-12T12:55:03;6.03;;;2.05;;
68353;SDS011;55274;43.060;25.618;2023-09-12T12:57:30;4.50;;;1.67;;
68353;SDS011;55274;43.060;25.618;2023-09-12T12:59:56;5.43;;;2.17;;
68353;SDS011;55274;43.060;25.618;2023-09-12T13:02:23;11.05;;;2.45;;
68353;SDS011;55274;43.060;25.618;2023-09-12T13:04:49;7.45;;;2.47;;
68353;SDS011;55274;43.060;25.618;2023-09-12T13:07:15;6.28;;;2.58;;
68353;SDS011;55274;43.060;25.618;2023-09-12T13:09:40;7.07;;;2.53;;
68353;SDS011;55274;43.060;25.618;2023-09-12T13:12:07;5.05;;;2.17;;
68353;SDS011;55274;43.060;25.618;2023-09-12T13:14:33;6.78;;;2.45;;
68353;SDS011;55274;43.060;25.618;2023-09-12T13:16:59;9.73;;;2.35;;
68353;SDS011;55274;43.060;25.618;2023-09-12T13:19:28;6.80;;;2.40;;
68353;SDS011;55274;43.060;25.618;2023-09-12T13:21:54;10.40;;;2.63;;
68353;SDS011;55274;43.060;25.618;2023-09-12T13:24:19;14.32;;;2.22;;
68353;SDS011;55274;43.060;25.618;2023-09-12T13:26:45;5.43;;;2.08;;
68353;SDS011;55274;43.060;25.618;2023-09-12T13:29:11;12.85;;;2.28;;
68353;SDS011;55274;43.060;25.618;2023-09-12T13:31:37;7.82;;;2.40;;
68353;SDS011;55274;43.060;25.618;2023-09-12T13:34:02;13.93;;;2.80;;
68353;SDS011;55274;43.060;25.618;2023-09-12T13:36:28;15.45;;;2.97;;
68353;SDS011;55274;43.060;25.618;2023-09-12T13:38:54;5.10;;;2.13;;
68353;SDS011;55274;43.060;25.618;2023-09-12T13:41:21;7.75;;;2.55;;
68353;SDS011;55274;43.060;25.618;2023-09-12T13:43:48;28.60;;;3.53;;
68353;SDS011;55274;43.060;25.618;2023-09-12T13:46:14;20.65;;;3.20;;
68353;SDS011;55274;43.060;25.618;2023-09-12T13:48:41;11.52;;;2.53;;
68353;SDS011;55274;43.060;25.618;2023-09-12T13:51:07;12.57;;;2.42;;
68353;SDS011;55274;43.060;25.618;2023-09-12T13:53:33;8.38;;;2.25;;
68353;SDS011;55274;43.060;25.618;2023-09-12T13:55:58;5.20;;;2.03;;
68353;SDS011;55274;43.060;25.618;2023-09-12T13:58:26;5.10;;;2.22;;
68353;SDS011;55274;43.060;25.618;2023-09-12T14:00:51;11.30;;;2.30;;
68353;SDS011;55274;43.060;25.618;2023-09-12T14:03:17;8.43;;;2.70;;
68353;SDS011;55274;43.060;25.618;2023-09-12T14:05:43;6.82;;;2.38;;
68353;SDS011;55274;43.060;25.618;2023-09-12T14:08:09;6.90;;;2.13;;
68353;SDS011;55274;43.060;25.618;2023-09-12T14:10:35;6.40;;;2.35;;
68353;SDS011;55274;43.060;25.618;2023-09-12T14:13:01;9.95;;;3.17;;
68353;SDS011;55274;43.060;25.618;2023-09-12T14:15:26;6.30;;;2.42;;
68353;SDS011;55274;43.060;25.618;2023-09-12T14:17:52;13.80;;;2.55;;
68353;SDS011;55274;43.060;25.618;2023-09-12T14:20:18;14.15;;;2.60;;
68353;SDS011;55274;43.060;25.618;2023-09-12T14:22:44;5.85;;;2.38;;
68353;SDS011;55274;43.060;25.618;2023-09-12T14:25:10;8.15;;;2.53;;
68353;SDS011;55274;43.060;25.618;2023-09-12T14:27:45;6.53;;;2.53;;
68353;SDS011;55274;43.060;25.618;2023-09-12T14:30:10;6.28;;;2.10;;
68353;SDS011;55274;43.060;25.618;2023-09-12T14:32:39;5.43;;;2.15;;
68353;SDS011;55274;43.060;25.618;2023-09-12T14:35:05;8.50;;;2.85;;
68353;SDS011;55274;43.060;25.618;2023-09-12T14:37:32;8.68;;;2.20;;
68353;SDS011;55274;43.060;25.618;2023-09-12T14:39:58;4.22;;;2.13;;
68353;SDS011;55274;43.060;25.618;2023-09-12T14:42:24;5.85;;;2.15;;
68353;SDS011;55274;43.060;25.618;2023-09-12T14:44:50;4.78;;;2.10;;
68353;SDS011;55274;43.060;25.618;2023-09-12T14:47:15;9.38;;;2.60;;
68353;SDS011;55274;43.060;25.618;2023-09-12T14:49:41;10.45;;;2.30;;
68353;SDS011;55274;43.060;25.618;2023-09-12T14:52:07;6.47;;;2.15;;
68353;SDS011;55274;43.060;25.618;2023-09-12T14:54:33;5.97;;;2.08;;
68353;SDS011;55274;43.060;25.618;2023-09-12T14:56:58;10.05;;;2.15;;
68353;SDS011;55274;43.060;25.618;2023-09-12T14:59:24;7.32;;;2.10;;
68353;SDS011;55274;43.060;25.618;2023-09-12T15:01:50;6.25;;;2.35;;